Main page
METAR-TAF:

METAR-TAF

Airports :

Adolfo Suárez Madrid–Barajas Airport

Madrid, Spain

latitude: 40-27N, longitude: 003-33W, elevation: 609 m

Current weather observation

The report was made 30 minutes ago, at 20:00 UTC
Wind 3 kt from the Northwest
Temperature 4°C
Humidity 44%
Pressure 1026 hPa
Visibility 10 km or more
no clouds below 1500 m and no cumulonimbus

METAR: LEMD 212000Z 31003KT CAVOK 04/M07 Q1026 NOSIG

Time: 21:30 (20:30 UTC)

Forecast

The report was made 3 hours and 30 minutes ago, at 17:00 UTC
Forecast valid from 21 at 18 UTC to 22 at 24 UTC
Wind 4 kt from the Northeast
Visibility 10 km or more
no clouds below 1500 m and no cumulonimbus
Probability 30% :
Temporary
from 22 at 03 UTC to 22 at 08 UTC
Broken clouds at a height of 1200 ft

TAF: LEMD 211700Z 2118/2224 05004KT CAVOK TX10/2215Z TNM03/2208Z PROB30 TEMPO 2203/2208 BKN012

Weather observations and forecasts of more than 4000 airports (METAR and TAF reports).

The available stations are represented by yellow and red dots on the map.

Hover mouse over dot to see the name of the station.

Then click to see weather observations and forecasts.

To change the map : click on the green buttons with a black cross to zoom in, on the green button with a dash to zoom out, or on the green arrows for adjacent maps.


METAR-TAF: